Time;durP1;ratioP1;P1;durP2;ratioP2;P2;SDS_P1;SDS_P2;PMS_P1;PMS_P2;Temp;Humidity;BMP_temperature;BMP_pressure;BME280_temperature;BME280_humidity;BME280_pressure;Samples;Min_cycle;Max_cycle;Signal;HPM_P1;HPM_P2
2020/12/12 00:01:51;;;;;;;21.23;9.65;;;3.20;99.90;;;;;;4980805;28;20019;-69
2020/12/12 00:04:18;;;;;;;21.63;10.20;;;3.20;99.90;;;;;;4980723;28;20022;-69
2020/12/12 00:06:45;;;;;;;18.77;9.95;;;3.10;99.90;;;;;;4980844;28;20026;-69
2020/12/12 00:09:15;;;;;;;21.30;8.90;;;3.10;99.90;;;;;;4980872;28;20019;-69
2020/12/12 00:11:42;;;;;;;19.80;10.10;;;3.00;99.90;;;;;;4980534;28;20031;-69
2020/12/12 00:14:09;;;;;;;19.10;10.23;;;3.00;99.90;;;;;;4981004;28;20026;-70
2020/12/12 00:16:37;;;;;;;22.60;10.40;;;3.00;99.90;;;;;;4981264;28;20074;-70
2020/12/12 00:19:05;;;;;;;20.50;11.20;;;2.90;99.90;;;;;;4979780;28;20023;-70
2020/12/12 00:21:33;;;;;;;24.30;10.43;;;2.90;99.90;;;;;;4980431;28;20023;-70
2020/12/12 00:24:00;;;;;;;23.58;12.10;;;2.90;99.90;;;;;;4995631;28;20026;-70
2020/12/12 00:26:28;;;;;;;22.05;10.73;;;2.90;99.90;;;;;;4980853;28;20018;-70
2020/12/12 00:28:57;;;;;;;22.38;10.77;;;2.90;99.90;;;;;;4980377;28;20109;-70
2020/12/12 00:31:25;;;;;;;23.17;10.48;;;2.90;99.90;;;;;;4980482;28;20027;-70
2020/12/12 00:33:53;;;;;;;21.77;10.60;;;2.90;99.90;;;;;;4980812;28;20030;-70
2020/12/12 00:36:21;;;;;;;21.40;10.48;;;2.80;99.90;;;;;;4980057;28;20034;-70
2020/12/12 00:38:48;;;;;;;24.08;11.68;;;2.80;99.90;;;;;;4980267;28;20420;-70
2020/12/12 00:41:16;;;;;;;22.58;11.13;;;2.80;99.90;;;;;;4980592;28;20023;-70
2020/12/12 00:43:44;;;;;;;22.02;10.88;;;2.90;99.90;;;;;;4980307;28;20019;-70
2020/12/12 00:46:12;;;;;;;24.13;11.80;;;2.90;99.90;;;;;;4979960;28;20037;-70
2020/12/12 00:48:40;;;;;;;20.67;10.02;;;2.90;99.90;;;;;;4980126;28;20435;-70
2020/12/12 00:51:08;;;;;;;22.73;10.90;;;2.90;99.90;;;;;;4979865;28;20035;-70
2020/12/12 00:53:36;;;;;;;20.92;10.05;;;2.90;99.90;;;;;;4979874;28;20423;-69
2020/12/12 00:56:03;;;;;;;21.30;9.45;;;2.90;99.90;;;;;;4994855;28;20030;-70
2020/12/12 00:58:30;;;;;;;23.42;10.48;;;2.90;99.90;;;;;;4980272;28;20018;-70
2020/12/12 01:00:58;;;;;;;20.00;10.40;;;2.90;99.90;;;;;;4979461;28;20042;-70
2020/12/12 01:03:26;;;;;;;22.95;11.15;;;2.90;99.90;;;;;;4980213;28;20015;-70
2020/12/12 01:05:53;;;;;;;25.13;11.35;;;2.90;99.90;;;;;;4980172;28;20425;-69
2020/12/12 01:08:20;;;;;;;23.33;10.48;;;2.90;99.90;;;;;;4979947;28;20042;-69
2020/12/12 01:10:48;;;;;;;23.35;11.15;;;2.90;99.90;;;;;;4980051;28;20081;-70
2020/12/12 01:13:15;;;;;;;26.10;11.02;;;2.90;99.90;;;;;;4994734;28;20031;-69
2020/12/12 01:15:42;;;;;;;25.17;12.93;;;2.90;99.90;;;;;;4994540;28;20547;-70
2020/12/12 01:18:11;;;;;;;21.73;10.43;;;2.90;99.90;;;;;;4979400;28;20019;-70
2020/12/12 01:20:39;;;;;;;25.08;11.30;;;3.00;99.90;;;;;;4994513;28;20304;-70
2020/12/12 01:23:07;;;;;;;22.30;10.52;;;3.00;99.90;;;;;;4994592;28;20080;-70
2020/12/12 01:25:37;;;;;;;22.88;11.10;;;3.00;99.90;;;;;;4979257;28;20027;-70
2020/12/12 01:28:06;;;;;;;24.67;12.27;;;3.00;99.90;;;;;;4979753;28;20102;-70
2020/12/12 01:30:37;;;;;;;22.65;11.30;;;3.00;99.90;;;;;;4979698;28;20077;-70
2020/12/12 01:33:05;;;;;;;22.23;11.07;;;3.00;99.90;;;;;;4979152;28;20026;-70
2020/12/12 01:35:32;;;;;;;22.10;10.98;;;3.00;99.90;;;;;;4978987;28;20022;-70
2020/12/12 01:38:00;;;;;;;22.55;11.07;;;3.00;99.90;;;;;;4994374;28;20108;-70
2020/12/12 01:40:27;;;;;;;21.70;10.57;;;3.00;99.90;;;;;;4979486;28;20023;-70
2020/12/12 01:42:54;;;;;;;27.75;12.32;;;3.00;99.90;;;;;;4978890;28;20081;-70
2020/12/12 01:45:22;;;;;;;23.05;10.55;;;3.00;99.90;;;;;;4979108;28;20038;-70
2020/12/12 01:47:49;;;;;;;21.73;10.73;;;3.00;99.90;;;;;;4977981;28;20108;-70
2020/12/12 01:50:16;;;;;;;21.67;9.82;;;3.00;99.90;;;;;;4978762;28;20023;-70
2020/12/12 01:52:53;;;;;;;23.35;10.43;;;3.00;99.90;;;;;;4978808;28;20068;-69
2020/12/12 01:55:21;;;;;;;21.65;11.68;;;3.00;99.90;;;;;;4978549;28;20023;-70
2020/12/12 01:57:50;;;;;;;23.27;11.43;;;3.10;99.90;;;;;;4978774;28;20025;-70
2020/12/12 02:00:19;;;;;;;22.88;11.52;;;3.10;99.90;;;;;;4993447;28;20386;-70
2020/12/12 02:02:53;;;;;;;20.38;10.63;;;3.10;99.90;;;;;;4978584;28;20109;-70
2020/12/12 02:05:42;;;;;;;21.13;10.45;;;3.10;99.90;;;;;;4978525;28;20077;-70
2020/12/12 02:08:17;;;;;;;22.98;11.40;;;3.10;99.90;;;;;;4978648;28;20037;-70
2020/12/12 02:10:47;;;;;;;20.23;9.80;;;3.10;99.90;;;;;;4978949;28;20033;-70
2020/12/12 02:13:16;;;;;;;21.15;11.40;;;3.10;99.90;;;;;;4978368;28;20027;-70
2020/12/12 02:15:45;;;;;;;22.00;10.85;;;3.10;99.90;;;;;;4993449;28;20378;-70
2020/12/12 02:18:23;;;;;;;22.45;11.05;;;3.10;99.90;;;;;;4978869;28;20023;-70
2020/12/12 02:20:56;;;;;;;19.48;9.93;;;3.20;99.90;;;;;;4993382;28;20019;-70
2020/12/12 02:23:24;;;;;;;22.15;11.05;;;3.20;99.90;;;;;;4993400;28;20082;-70
2020/12/12 02:25:52;;;;;;;18.88;9.90;;;3.20;99.90;;;;;;4993295;28;20027;-69
2020/12/12 02:28:23;;;;;;;20.60;9.18;;;3.20;99.90;;;;;;4978243;28;20023;-70
2020/12/12 02:30:51;;;;;;;19.95;9.48;;;3.20;99.90;;;;;;4978050;28;20446;-69
2020/12/12 02:33:19;;;;;;;20.33;9.30;;;3.20;99.90;;;;;;4978734;28;20023;-70
2020/12/12 02:35:47;;;;;;;25.20;10.70;;;3.20;99.90;;;;;;4978499;28;20110;-69
2020/12/12 02:38:14;;;;;;;20.00;9.73;;;3.30;99.90;;;;;;4978038;28;20328;-70
2020/12/12 02:40:41;;;;;;;21.40;10.52;;;3.30;99.90;;;;;;4978199;28;20027;-69
2020/12/12 02:43:13;;;;;;;22.05;10.52;;;3.30;99.90;;;;;;4978138;28;20026;-70
2020/12/12 02:45:46;;;;;;;21.92;11.00;;;3.30;99.90;;;;;;4978372;28;20435;-69
2020/12/12 02:48:13;;;;;;;21.13;10.88;;;3.30;99.90;;;;;;4977912;28;20023;-70
2020/12/12 02:50:42;;;;;;;20.50;11.25;;;3.30;99.90;;;;;;4992983;28;20327;-69
2020/12/12 02:53:09;;;;;;;19.50;8.82;;;3.30;99.90;;;;;;4977982;28;20054;-70
2020/12/12 02:55:37;;;;;;;11.95;5.95;;;3.30;99.90;;;;;;4992847;28;20090;-69
2020/12/12 02:58:05;;;;;;;20.63;10.95;;;3.40;99.90;;;;;;4977686;28;20319;-70
2020/12/12 03:00:32;;;;;;;20.40;9.85;;;3.30;99.90;;;;;;4977570;28;20148;-70
2020/12/12 03:03:00;;;;;;;20.00;9.88;;;3.40;99.90;;;;;;4978407;28;20026;-70
2020/12/12 03:05:28;;;;;;;20.83;10.02;;;3.40;99.90;;;;;;4977593;28;20033;-70
2020/12/12 03:07:55;;;;;;;19.60;9.05;;;3.40;99.90;;;;;;4977674;28;20038;-70
2020/12/12 03:10:22;;;;;;;21.92;10.48;;;3.40;99.90;;;;;;4977618;28;20439;-69
2020/12/12 03:12:50;;;;;;;18.38;8.27;;;3.40;99.90;;;;;;4978222;28;20027;-69
2020/12/12 03:15:17;;;;;;;21.27;10.15;;;3.40;99.90;;;;;;4978034;28;20034;-70
2020/12/12 03:17:45;;;;;;;19.17;10.40;;;3.40;99.90;;;;;;4977592;28;20023;-70
2020/12/12 03:20:12;;;;;;;19.20;9.43;;;3.40;99.90;;;;;;4977538;28;20065;-69
2020/12/12 03:22:41;;;;;;;20.60;10.32;;;3.40;99.90;;;;;;4977656;28;20319;-69
2020/12/12 03:25:09;;;;;;;19.35;10.32;;;3.40;99.90;;;;;;4977988;28;20026;-69
2020/12/12 03:27:36;;;;;;;17.65;9.38;;;3.50;99.90;;;;;;4992550;28;20077;-70
2020/12/12 03:30:03;;;;;;;20.05;10.77;;;3.50;99.90;;;;;;4977729;28;20364;-70
2020/12/12 03:32:30;;;;;;;19.73;9.88;;;3.50;99.90;;;;;;4978021;28;20031;-69
2020/12/12 03:34:58;;;;;;;17.23;8.80;;;3.50;99.90;;;;;;4977864;28;20062;-70
2020/12/12 03:37:25;;;;;;;20.92;10.23;;;3.50;99.90;;;;;;4977882;28;20026;-70
2020/12/12 03:39:53;;;;;;;18.90;9.32;;;3.50;99.90;;;;;;4977883;28;20027;-70
2020/12/12 03:42:20;;;;;;;20.80;11.23;;;3.50;99.90;;;;;;4992540;28;20033;-70
2020/12/12 03:44:48;;;;;;;19.60;9.45;;;3.50;99.90;;;;;;4977832;28;20023;-70
2020/12/12 03:47:16;;;;;;;18.63;9.30;;;3.50;99.90;;;;;;4978021;28;20027;-70
2020/12/12 03:49:44;;;;;;;16.77;8.93;;;3.50;99.90;;;;;;4977270;28;20029;-70
2020/12/12 03:52:12;;;;;;;18.10;9.60;;;3.60;99.90;;;;;;4977823;28;20077;-70
2020/12/12 03:54:39;;;;;;;17.42;8.77;;;3.50;99.90;;;;;;4978216;28;20029;-70
2020/12/12 03:57:07;;;;;;;20.95;9.70;;;3.50;99.90;;;;;;4996177;28;20114;-70
2020/12/12 03:59:35;;;;;;;17.33;9.00;;;3.50;99.90;;;;;;4980585;28;20066;-70
2020/12/12 04:02:03;;;;;;;17.55;9.80;;;3.60;99.90;;;;;;4996016;28;20030;-70
2020/12/12 04:04:30;;;;;;;16.48;8.50;;;3.60;99.90;;;;;;4980746;28;20033;-70
2020/12/12 04:06:58;;;;;;;18.60;9.02;;;3.60;99.90;;;;;;4980898;28;20098;-70
2020/12/12 04:09:26;;;;;;;18.08;8.50;;;3.60;99.90;;;;;;4980625;28;20318;-70
2020/12/12 04:11:53;;;;;;;15.25;8.23;;;3.60;99.90;;;;;;4980696;28;20474;-70
2020/12/12 04:14:21;;;;;;;15.05;8.65;;;3.60;99.90;;;;;;4995809;28;20030;-70
2020/12/12 04:16:50;;;;;;;16.42;8.70;;;3.60;99.90;;;;;;4980979;28;20022;-69
2020/12/12 04:19:17;;;;;;;14.25;8.63;;;3.70;99.90;;;;;;4981027;28;20399;-70
2020/12/12 04:21:45;;;;;;;16.13;8.65;;;3.60;99.90;;;;;;4981058;28;20019;-69
2020/12/12 04:24:12;;;;;;;17.95;8.95;;;3.60;99.90;;;;;;4980409;28;20019;-69
2020/12/12 04:26:40;;;;;;;15.63;8.68;;;3.70;99.90;;;;;;4980551;28;20027;-70
2020/12/12 04:29:08;;;;;;;16.95;9.27;;;3.70;99.90;;;;;;4980209;28;20081;-70
2020/12/12 04:31:35;;;;;;;15.88;8.40;;;3.70;99.90;;;;;;4980843;28;20029;-70
2020/12/12 04:34:03;;;;;;;15.07;7.97;;;3.70;99.90;;;;;;4980140;28;20045;-70
2020/12/12 04:36:32;;;;;;;12.48;6.72;;;3.70;99.90;;;;;;4980817;28;20023;-69
2020/12/12 04:39:00;;;;;;;15.15;8.45;;;3.70;99.90;;;;;;4980175;28;20037;-70
2020/12/12 04:41:28;;;;;;;18.33;8.93;;;3.70;99.90;;;;;;4995258;28;20022;-70
2020/12/12 04:43:56;;;;;;;17.27;8.95;;;3.70;99.90;;;;;;4979972;28;20324;-70
2020/12/12 04:46:24;;;;;;;16.70;8.88;;;3.70;99.90;;;;;;4995159;28;20031;-70
2020/12/12 04:48:51;;;;;;;15.40;8.10;;;3.70;99.90;;;;;;4995212;28;20027;-70
2020/12/12 04:51:18;;;;;;;15.48;8.25;;;3.80;99.90;;;;;;4979935;28;20054;-70
2020/12/12 04:53:47;;;;;;;16.10;8.05;;;3.80;99.90;;;;;;4980446;28;20027;-70
2020/12/12 04:56:24;;;;;;;17.60;8.25;;;3.80;99.90;;;;;;4979720;28;20033;-70
2020/12/12 04:58:53;;;;;;;16.40;8.40;;;3.80;99.90;;;;;;4979937;28;20023;-70
2020/12/12 05:01:21;;;;;;;16.17;8.40;;;3.80;99.90;;;;;;4979834;28;20038;-70
2020/12/12 05:03:51;;;;;;;16.60;8.68;;;3.80;99.90;;;;;;4979702;28;20051;-70
2020/12/12 05:06:19;;;;;;;15.10;8.05;;;3.80;99.90;;;;;;4979906;28;20034;-70
2020/12/12 05:08:47;;;;;;;14.90;7.80;;;3.80;99.90;;;;;;4980132;28;20018;-70
2020/12/12 05:11:16;;;;;;;14.25;7.90;;;3.80;99.90;;;;;;4979530;28;20454;-69
2020/12/12 05:13:48;;;;;;;17.80;9.27;;;3.80;99.90;;;;;;4994757;28;20066;-69
2020/12/12 05:16:17;;;;;;;16.98;8.40;;;3.80;99.90;;;;;;4979912;28;20483;-70
2020/12/12 05:18:45;;;;;;;15.60;8.45;;;3.80;99.90;;;;;;4979965;28;20464;-70
2020/12/12 05:21:12;;;;;;;14.40;7.07;;;3.80;99.90;;;;;;4979379;28;20015;-69
2020/12/12 05:23:40;;;;;;;12.80;7.40;;;3.80;99.90;;;;;;4979502;28;20101;-69
2020/12/12 05:26:12;;;;;;;16.05;8.20;;;3.90;99.90;;;;;;4979281;28;20027;-70
2020/12/12 05:28:41;;;;;;;15.68;8.25;;;3.90;99.90;;;;;;4979360;28;20320;-70
2020/12/12 05:31:10;;;;;;;14.05;8.10;;;3.90;99.90;;;;;;4979201;28;20065;-70
2020/12/12 05:33:38;;;;;;;13.85;7.32;;;3.90;99.90;;;;;;4979840;28;20404;-69
2020/12/12 05:36:06;;;;;;;10.88;5.32;;;3.90;99.90;;;;;;4979583;28;20035;-70
2020/12/12 05:38:34;;;;;;;14.85;7.63;;;3.90;99.90;;;;;;4979595;28;20089;-70
2020/12/12 05:41:02;;;;;;;14.20;7.75;;;3.90;99.90;;;;;;4979038;28;20470;-70
2020/12/12 05:43:37;;;;;;;16.25;8.35;;;3.90;99.90;;;;;;4994255;28;20110;-70
2020/12/12 05:46:05;;;;;;;14.15;7.82;;;3.90;99.90;;;;;;4979373;28;20027;-70
2020/12/12 05:48:33;;;;;;;13.07;8.10;;;3.90;99.90;;;;;;4978918;28;20031;-70
2020/12/12 05:51:00;;;;;;;16.08;8.80;;;3.90;99.90;;;;;;4978833;28;20073;-70
2020/12/12 05:53:29;;;;;;;24.38;11.38;;;3.90;99.90;;;;;;4978966;28;20051;-70
2020/12/12 05:55:57;;;;;;;16.55;9.35;;;3.90;99.90;;;;;;4978667;28;20097;-70
2020/12/12 05:58:25;;;;;;;27.00;11.93;;;3.90;99.90;;;;;;4978980;28;20034;-70
2020/12/12 06:00:53;;;;;;;47.95;17.52;;;3.90;99.90;;;;;;4978568;28;20347;-69
2020/12/12 06:03:38;;;;;;;38.88;15.18;;;3.90;99.90;;;;;;4978618;28;20026;-70
2020/12/12 06:06:06;;;;;;;24.92;11.23;;;3.90;99.90;;;;;;4978518;28;20027;-70
2020/12/12 06:08:36;;;;;;;18.02;9.70;;;3.90;99.90;;;;;;4978477;28;20027;-70
2020/12/12 06:11:09;;;;;;;15.40;9.60;;;3.90;99.90;;;;;;4978459;28;20106;-70
2020/12/12 06:13:38;;;;;;;19.88;9.63;;;3.90;99.90;;;;;;4978911;28;20408;-70
2020/12/12 06:16:07;;;;;;;17.75;9.27;;;3.90;99.90;;;;;;4978283;28;20030;-69
2020/12/12 06:18:43;;;;;;;15.90;8.52;;;4.00;99.90;;;;;;4992925;28;20084;-70
2020/12/12 06:21:11;;;;;;;16.63;8.73;;;3.90;99.90;;;;;;4978502;28;20022;-70
2020/12/12 06:23:40;;;;;;;18.05;10.50;;;3.90;99.90;;;;;;4978800;28;20019;-70
2020/12/12 06:26:10;;;;;;;14.93;8.70;;;3.90;99.90;;;;;;4978145;28;20026;-70
2020/12/12 06:28:44;;;;;;;14.57;8.30;;;4.00;99.90;;;;;;4978240;28;20102;-70
2020/12/12 06:31:13;;;;;;;24.20;12.85;;;4.00;99.90;;;;;;4978572;28;20034;-70
2020/12/12 06:33:51;;;;;;;17.95;9.38;;;4.00;99.90;;;;;;4993283;28;20038;-70
2020/12/12 06:36:30;;;;;;;17.02;9.80;;;4.00;99.90;;;;;;4977893;28;20026;-68
2020/12/12 06:39:16;;;;;;;17.17;8.82;;;4.00;99.90;;;;;;4978491;28;20198;-69
2020/12/12 06:41:44;;;;;;;15.27;8.27;;;4.00;99.90;;;;;;4978298;28;20470;-69
2020/12/12 06:44:12;;;;;;;16.02;8.20;;;4.00;99.90;;;;;;4993033;28;20038;-70
2020/12/12 06:46:56;;;;;;;13.05;7.45;;;4.00;99.90;;;;;;4978608;28;20027;-70
2020/12/12 06:49:23;;;;;;;14.40;8.00;;;4.00;99.90;;;;;;4978393;28;20027;-68
2020/12/12 06:51:52;;;;;;;15.07;8.27;;;4.00;99.90;;;;;;4977866;28;20141;-67
2020/12/12 06:54:23;;;;;;;17.42;9.13;;;4.00;99.90;;;;;;4978314;28;20027;-72
2020/12/12 06:56:51;;;;;;;16.65;8.77;;;4.00;99.90;;;;;;4978108;28;20034;-72
2020/12/12 06:59:35;;;;;;;19.10;8.73;;;4.00;99.90;;;;;;4977520;28;20054;-72
2020/12/12 07:02:05;;;;;;;16.70;8.93;;;4.00;99.90;;;;;;4977664;28;20054;-71
2020/12/12 07:04:38;;;;;;;16.02;8.13;;;4.00;99.90;;;;;;4978196;28;20034;-71
2020/12/12 07:07:09;;;;;;;19.25;8.77;;;4.00;99.90;;;;;;4977857;28;20077;-72
2020/12/12 07:09:39;;;;;;;16.10;8.95;;;3.90;99.90;;;;;;4978111;28;20307;-72
2020/12/12 07:12:06;;;;;;;16.50;8.88;;;3.90;99.90;;;;;;4977561;28;20110;-71
2020/12/12 07:14:36;;;;;;;18.33;9.65;;;3.90;99.90;;;;;;4992603;28;20050;-71
2020/12/12 07:17:06;;;;;;;23.33;10.60;;;3.80;99.90;;;;;;4977460;28;20030;-70
2020/12/12 07:19:41;;;;;;;19.13;10.35;;;3.80;99.90;;;;;;4977775;28;20431;-73
2020/12/12 07:22:12;;;;;;;18.92;9.50;;;3.80;99.90;;;;;;4977790;28;20027;-73
2020/12/12 07:24:40;;;;;;;17.73;9.15;;;3.80;99.90;;;;;;4992587;28;20023;-70
2020/12/12 07:27:08;;;;;;;20.85;10.20;;;3.80;99.90;;;;;;4978013;28;20046;-70
2020/12/12 07:29:36;;;;;;;17.48;8.85;;;3.80;99.90;;;;;;4995115;28;20029;-69
2020/12/12 07:32:04;;;;;;;18.15;9.57;;;3.80;99.90;;;;;;4981373;28;20485;-69
2020/12/12 07:34:32;;;;;;;17.00;8.60;;;3.80;99.90;;;;;;4981279;28;20326;-70
2020/12/12 07:37:05;;;;;;;16.88;8.90;;;3.80;99.90;;;;;;4981359;28;20392;-70
2020/12/12 07:39:41;;;;;;;19.30;9.52;;;3.90;99.90;;;;;;4981494;28;20371;-68
2020/12/12 07:42:13;;;;;;;16.15;8.77;;;3.90;99.90;;;;;;4981766;28;20023;-67
2020/12/12 07:44:56;;;;;;;16.50;8.93;;;3.90;99.90;;;;;;4981083;28;20038;-66
2020/12/12 07:47:24;;;;;;;16.08;9.20;;;3.90;99.90;;;;;;4981532;28;20057;-68
2020/12/12 07:50:02;;;;;;;15.77;8.80;;;4.00;99.90;;;;;;4981570;28;20030;-68
2020/12/12 07:52:29;;;;;;;16.90;9.68;;;4.00;99.90;;;;;;4980959;28;20375;-68
2020/12/12 07:55:06;;;;;;;18.27;9.23;;;4.00;99.90;;;;;;4980848;28;20015;-68
2020/12/12 07:57:38;;;;;;;15.85;9.40;;;4.00;99.90;;;;;;4981049;28;20050;-68
2020/12/12 08:00:08;;;;;;;18.52;8.57;;;4.10;99.90;;;;;;4980701;28;20053;-68
2020/12/12 08:02:36;;;;;;;13.88;7.50;;;4.00;99.90;;;;;;4980832;28;20078;-68
2020/12/12 08:05:05;;;;;;;15.57;7.32;;;4.10;99.90;;;;;;4981234;28;20019;-68
2020/12/12 08:07:34;;;;;;;16.30;8.68;;;4.10;99.90;;;;;;4980668;28;20387;-68
2020/12/12 08:10:04;;;;;;;14.70;8.20;;;4.10;99.90;;;;;;4980962;28;20030;-69
2020/12/12 08:12:35;;;;;;;14.52;8.30;;;4.20;99.90;;;;;;4995728;28;20027;-68
2020/12/12 08:15:22;;;;;;;17.10;9.02;;;4.10;99.90;;;;;;4980505;28;20027;-68
2020/12/12 08:17:51;;;;;;;15.55;8.95;;;4.20;99.90;;;;;;4980695;28;20018;-68
2020/12/12 08:20:25;;;;;;;16.00;8.50;;;4.20;99.90;;;;;;4981070;28;20023;-68
2020/12/12 08:22:59;;;;;;;17.73;7.82;;;4.20;99.90;;;;;;4980532;28;20102;-68
2020/12/12 08:25:26;;;;;;;17.48;7.45;;;4.20;99.90;;;;;;4980981;28;20079;-68
2020/12/12 08:27:57;;;;;;;16.10;7.97;;;4.20;99.90;;;;;;4979897;28;20127;-69
2020/12/12 08:30:25;;;;;;;20.20;11.25;;;4.20;99.90;;;;;;4995782;28;20331;-69
2020/12/12 08:32:54;;;;;;;23.15;11.98;;;4.20;99.90;;;;;;4980327;28;20077;-69
2020/12/12 08:35:26;;;;;;;18.15;9.25;;;4.20;99.90;;;;;;4995390;28;20030;-68
2020/12/12 08:38:01;;;;;;;15.50;8.07;;;4.30;99.90;;;;;;4980838;28;20126;-68
2020/12/12 08:40:34;;;;;;;16.60;8.30;;;4.30;99.90;;;;;;4979421;28;20106;-69
2020/12/12 08:43:09;;;;;;;15.18;8.35;;;4.30;99.90;;;;;;4980293;28;20328;-69
2020/12/12 08:45:39;;;;;;;17.17;9.27;;;4.40;99.90;;;;;;4980635;28;20027;-68
2020/12/12 08:48:14;;;;;;;17.48;9.65;;;4.40;99.90;;;;;;4980098;28;20026;-69
2020/12/12 08:50:53;;;;;;;15.60;7.97;;;4.50;99.90;;;;;;4980196;28;20030;-68
2020/12/12 08:53:32;;;;;;;16.13;8.38;;;4.60;99.90;;;;;;4995280;28;20027;-68
2020/12/12 08:56:16;;;;;;;15.85;8.18;;;4.60;99.90;;;;;;4980401;28;20058;-69
2020/12/12 08:58:49;;;;;;;16.95;8.38;;;4.70;99.90;;;;;;4979858;28;20097;-69
2020/12/12 09:01:29;;;;;;;15.32;8.82;;;4.80;99.90;;;;;;4980355;28;20356;-69
2020/12/12 09:03:58;;;;;;;39.05;19.40;;;4.80;99.90;;;;;;4980441;28;20019;-69
2020/12/12 09:06:26;;;;;;;41.13;25.00;;;4.80;99.90;;;;;;4994785;28;20027;-69
2020/12/12 09:09:31;;;;;;;20.55;10.40;;;4.80;99.90;;;;;;4979909;28;20427;-69
2020/12/12 09:12:02;;;;;;;18.27;10.02;;;4.90;99.90;;;;;;4979963;28;20031;-71
2020/12/12 09:14:32;;;;;;;23.77;11.90;;;4.90;99.90;;;;;;4995129;28;20037;-71
2020/12/12 09:17:02;;;;;;;20.25;10.15;;;5.00;99.90;;;;;;4980149;28;20027;-70
2020/12/12 09:19:31;;;;;;;17.48;9.45;;;5.00;99.90;;;;;;4979829;28;20030;-70
2020/12/12 09:21:59;;;;;;;23.90;11.55;;;5.00;99.90;;;;;;4979865;28;20030;-69
2020/12/12 09:24:27;;;;;;;19.63;9.73;;;5.00;99.90;;;;;;4979660;28;20089;-70
2020/12/12 09:26:57;;;;;;;15.13;8.50;;;5.10;99.90;;;;;;4980343;28;20031;-69
2020/12/12 09:29:25;;;;;;;17.30;9.23;;;5.10;99.90;;;;;;4979411;28;20154;-69
2020/12/12 09:31:54;;;;;;;17.63;9.43;;;5.10;99.90;;;;;;4994434;28;20339;-69
2020/12/12 09:34:23;;;;;;;15.90;7.78;;;5.10;99.90;;;;;;4979402;28;20050;-69
2020/12/12 09:36:52;;;;;;;14.10;7.88;;;5.20;99.90;;;;;;4979080;28;20023;-70
2020/12/12 09:39:20;;;;;;;17.20;8.68;;;5.20;99.90;;;;;;4979124;28;20427;-69
2020/12/12 09:41:48;;;;;;;16.40;9.10;;;5.30;99.90;;;;;;4979048;28;20026;-69
2020/12/12 09:44:16;;;;;;;19.70;9.40;;;5.30;99.90;;;;;;4978922;28;20094;-69
2020/12/12 09:46:43;;;;;;;15.57;8.90;;;5.40;99.90;;;;;;4978987;28;20115;-69
2020/12/12 09:49:11;;;;;;;15.25;8.15;;;5.40;99.90;;;;;;4979413;28;20026;-69
2020/12/12 09:51:39;;;;;;;22.25;12.27;;;5.40;99.90;;;;;;4978608;28;20134;-69
2020/12/12 09:54:07;;;;;;;34.03;16.92;;;5.50;99.90;;;;;;4993676;28;20034;-67
2020/12/12 09:56:34;;;;;;;18.10;9.75;;;5.50;99.90;;;;;;4978605;28;20390;-68
2020/12/12 09:59:03;;;;;;;23.05;10.60;;;5.50;99.90;;;;;;4979044;28;20066;-67
2020/12/12 10:01:30;;;;;;;15.23;8.23;;;5.60;99.90;;;;;;4978665;28;20038;-65
2020/12/12 10:03:58;;;;;;;17.67;9.27;;;5.60;99.90;;;;;;4978693;28;20427;-67
2020/12/12 10:06:26;;;;;;;21.85;9.88;;;5.70;99.90;;;;;;4978640;28;20030;-67
2020/12/12 10:08:55;;;;;;;24.02;11.50;;;5.80;99.90;;;;;;4978987;28;20457;-67
2020/12/12 10:11:23;;;;;;;29.73;11.98;;;5.90;99.90;;;;;;4979035;28;20023;-67
2020/12/12 10:13:50;;;;;;;25.80;11.30;;;5.90;99.90;;;;;;4978383;28;20026;-67
2020/12/12 10:16:21;;;;;;;15.73;7.90;;;6.00;99.90;;;;;;4978893;28;20022;-67
2020/12/12 10:18:49;;;;;;;15.23;8.00;;;6.00;99.90;;;;;;4993682;28;20118;-67
2020/12/12 10:21:17;;;;;;;13.90;7.38;;;6.10;99.90;;;;;;4978908;28;20045;-67
2020/12/12 10:23:44;;;;;;;12.70;6.93;;;6.10;99.90;;;;;;4993503;28;20092;-67
2020/12/12 10:26:12;;;;;;;13.82;7.75;;;6.10;99.90;;;;;;4979346;28;20308;-67
2020/12/12 10:28:41;;;;;;;13.50;7.25;;;6.20;99.90;;;;;;4978341;28;20027;-67
2020/12/12 10:31:08;;;;;;;13.70;7.30;;;6.20;99.90;;;;;;4978118;28;20094;-67
2020/12/12 10:33:36;;;;;;;12.50;7.50;;;6.20;99.90;;;;;;4978211;28;20023;-67
2020/12/12 10:36:03;;;;;;;12.00;6.90;;;6.30;99.90;;;;;;4978059;28;20022;-69
2020/12/12 10:38:34;;;;;;;13.50;7.15;;;6.30;99.90;;;;;;4978535;28;20019;-69
2020/12/12 10:41:11;;;;;;;11.63;6.97;;;6.30;99.90;;;;;;4978865;28;20015;-69
2020/12/12 10:43:40;;;;;;;12.95;7.03;;;6.40;99.90;;;;;;4978147;28;20027;-68
2020/12/12 10:46:08;;;;;;;11.48;7.03;;;6.40;99.90;;;;;;4977931;28;20022;-69
2020/12/12 10:48:37;;;;;;;11.98;6.43;;;6.40;99.90;;;;;;4978084;28;20086;-69
2020/12/12 10:51:04;;;;;;;12.52;7.13;;;6.50;99.90;;;;;;4978730;28;20371;-69
2020/12/12 10:53:32;;;;;;;13.00;7.22;;;6.50;99.90;;;;;;4977903;28;20023;-69
2020/12/12 10:55:59;;;;;;;15.55;7.50;;;6.50;99.90;;;;;;4992914;28;20376;-69
2020/12/12 10:58:26;;;;;;;15.57;7.53;;;6.60;99.90;;;;;;4992928;28;20050;-69
2020/12/12 11:00:54;;;;;;;11.93;7.10;;;6.60;99.90;;;;;;4977614;28;20046;-68
2020/12/12 11:03:21;;;;;;;15.20;7.22;;;6.60;99.90;;;;;;4977307;28;20023;-69
2020/12/12 11:05:49;;;;;;;12.75;6.78;;;6.60;99.90;;;;;;4977652;28;20038;-69
2020/12/12 11:08:16;;;;;;;13.65;7.22;;;6.60;99.90;;;;;;4978292;28;20035;-70
2020/12/12 11:10:44;;;;;;;14.55;7.35;;;6.60;99.90;;;;;;4977947;28;20027;-70
2020/12/12 11:13:12;;;;;;;14.23;7.15;;;6.60;99.90;;;;;;4978220;28;20037;-69
2020/12/12 11:15:42;;;;;;;13.07;7.72;;;6.60;99.90;;;;;;4992777;28;20102;-69
2020/12/12 11:18:11;;;;;;;13.45;7.90;;;6.70;99.90;;;;;;4978330;28;20023;-69
2020/12/12 11:20:39;;;;;;;11.85;7.15;;;6.70;99.90;;;;;;4977548;28;20019;-69
2020/12/12 11:23:07;;;;;;;13.73;7.63;;;6.70;99.90;;;;;;4977612;28;20490;-69
2020/12/12 11:25:34;;;;;;;12.60;7.57;;;6.70;99.90;;;;;;4992696;28;20034;-69
2020/12/12 11:28:02;;;;;;;15.30;7.72;;;6.80;99.90;;;;;;4992810;28;20118;-70
2020/12/12 11:30:30;;;;;;;12.57;6.85;;;6.80;99.90;;;;;;4977551;28;20031;-70
2020/12/12 11:32:58;;;;;;;12.82;7.18;;;6.90;99.90;;;;;;4977541;28;20023;-69
2020/12/12 11:35:39;;;;;;;12.15;6.97;;;6.90;99.90;;;;;;4977429;28;20030;-70
2020/12/12 11:38:23;;;;;;;15.98;7.90;;;6.90;99.90;;;;;;4977642;28;20031;-68
2020/12/12 11:41:00;;;;;;;12.25;7.38;;;6.90;99.90;;;;;;4977495;28;20050;-68
2020/12/12 11:46:26;;;;;;;14.95;8.05;;;6.90;99.90;;;;;;4977721;28;20439;-68
2020/12/12 11:48:54;;;;;;;14.00;6.93;;;7.00;99.90;;;;;;4978088;28;20305;-68
2020/12/12 11:51:22;;;;;;;13.95;7.57;;;7.00;99.90;;;;;;4992516;28;20061;-66
2020/12/12 11:53:50;;;;;;;11.90;6.43;;;7.00;99.90;;;;;;4992555;28;20027;-67
2020/12/12 11:56:25;;;;;;;10.95;6.60;;;7.00;99.90;;;;;;4992311;28;20154;-66
2020/12/12 11:58:53;;;;;;;11.00;6.47;;;7.00;99.90;;;;;;4977490;28;20019;-68
2020/12/12 12:01:25;;;;;;;13.32;6.70;;;7.10;99.90;;;;;;4977300;28;20074;-67
2020/12/12 12:03:53;;;;;;;11.55;6.82;;;7.10;99.90;;;;;;4977822;28;20019;-67
2020/12/12 12:06:23;;;;;;;11.57;6.68;;;7.00;99.90;;;;;;4992373;28;20371;-68
2020/12/12 12:11:35;;;;;;;13.75;7.55;;;7.10;99.90;;;;;;4977309;28;20114;-67
2020/12/12 12:14:04;;;;;;;11.35;6.32;;;7.10;99.90;;;;;;4977066;28;20085;-67
2020/12/12 12:16:36;;;;;;;18.52;10.15;;;7.10;99.90;;;;;;4979175;28;20038;-69
2020/12/12 12:19:14;;;;;;;12.60;7.22;;;7.00;99.90;;;;;;4980868;28;20054;-69
2020/12/12 12:21:43;;;;;;;12.38;6.63;;;7.00;99.90;;;;;;4981033;28;20107;-67
2020/12/12 12:24:15;;;;;;;12.27;6.95;;;7.00;99.90;;;;;;4980611;28;20369;-67
2020/12/12 12:26:50;;;;;;;12.73;7.47;;;7.00;99.90;;;;;;4980445;28;20035;-68
2020/12/12 12:29:20;;;;;;;13.27;7.63;;;7.00;99.90;;;;;;4980430;28;20026;-67
2020/12/12 12:31:49;;;;;;;15.00;7.68;;;7.00;99.90;;;;;;4980259;28;20029;-69
2020/12/12 12:34:17;;;;;;;12.77;6.75;;;7.00;99.90;;;;;;4980206;28;20022;-69
2020/12/12 12:36:45;;;;;;;17.25;9.13;;;7.00;99.90;;;;;;4980706;28;20031;-69
2020/12/12 12:39:13;;;;;;;31.77;14.43;;;7.00;99.90;;;;;;4995549;28;20061;-69
2020/12/12 12:41:40;;;;;;;24.75;12.98;;;7.00;99.90;;;;;;4980451;28;20058;-67
2020/12/12 12:44:08;;;;;;;15.30;9.15;;;7.00;99.90;;;;;;4980115;28;20022;-67
2020/12/12 12:46:39;;;;;;;14.88;8.73;;;7.00;99.90;;;;;;4995224;28;20451;-67
2020/12/12 12:49:07;;;;;;;14.98;7.40;;;7.00;99.90;;;;;;4980172;28;20027;-67
2020/12/12 12:51:35;;;;;;;16.83;8.57;;;7.00;99.90;;;;;;4995190;28;20073;-67
2020/12/12 12:54:03;;;;;;;14.23;7.95;;;7.00;99.90;;;;;;4979963;28;20038;-67
2020/12/12 12:56:31;;;;;;;13.35;7.22;;;6.90;99.90;;;;;;4979840;28;20462;-67
2020/12/12 12:58:59;;;;;;;12.70;7.30;;;6.90;99.90;;;;;;4979790;28;20023;-68
2020/12/12 13:01:27;;;;;;;12.75;6.85;;;6.90;99.90;;;;;;4979749;28;20049;-67